Time;durP1;ratioP1;P1;durP2;ratioP2;P2;SDS_P1;SDS_P2;PMS_P1;PMS_P2;Temp;Humidity;BMP_temperature;BMP_pressure;BME280_temperature;BME280_humidity;BME280_pressure;Samples;Min_cycle;Max_cycle;Signal;HPM_P1;HPM_P2
2022/08/07 00:01:47;;;;;;;14.53;13.10;;;;;;;-143.84;74.44;45043.34;5111116;28;20434;-72
2022/08/07 00:04:14;;;;;;;15.80;13.43;;;;;;;-143.84;74.55;45018.59;5111049;28;20500;-72
2022/08/07 00:06:42;;;;;;;16.60;14.07;;;;;;;-143.84;74.50;45007.19;5110899;28;20439;-72
2022/08/07 00:09:09;;;;;;;15.17;13.67;;;;;;;-143.84;74.71;45018.59;5110967;28;20431;-72
2022/08/07 00:11:37;;;;;;;15.13;12.50;;;;;;;-143.84;75.15;45052.88;5110445;28;20443;-72
2022/08/07 00:14:05;;;;;;;14.93;12.83;;;;;;;-143.84;75.30;45028.13;5110723;28;21034;-72
2022/08/07 00:16:32;;;;;;;23.93;13.60;;;;;;;-143.84;75.89;45030.03;5110686;28;20458;-72
2022/08/07 00:18:59;;;;;;;16.10;14.40;;;;;;;-143.84;77.21;45035.75;5110545;28;20817;-72
2022/08/07 00:21:26;;;;;;;17.77;13.97;;;;;;;-143.84;78.37;45045.25;5110609;28;20438;-72
2022/08/07 00:23:53;;;;;;;17.80;14.77;;;;;;;-143.84;78.32;45030.03;5110925;28;20512;-72
2022/08/07 00:26:20;;;;;;;21.73;14.60;;;;;;;-143.84;79.34;45045.25;5110480;28;20476;-72
2022/08/07 00:28:49;;;;;;;17.10;15.40;;;;;;;-143.84;80.55;45049.06;5110739;28;20435;-72
2022/08/07 00:31:16;;;;;;;17.00;13.97;;;;;;;-143.84;81.33;45020.50;5110419;28;20508;-72
2022/08/07 00:33:43;;;;;;;16.23;14.57;;;;;;;-143.84;82.23;45030.03;5110308;28;20523;-72
2022/08/07 00:36:11;;;;;;;18.10;15.20;;;;;;;-143.84;82.83;45045.25;5110667;28;20507;-72
2022/08/07 00:38:38;;;;;;;15.83;14.23;;;;;;;-143.84;83.55;45060.50;5110383;28;20500;-72
2022/08/07 00:41:06;;;;;;;17.23;15.53;;;;;;;-143.84;84.26;45012.88;5110267;28;20446;-72
2022/08/07 00:43:33;;;;;;;31.97;15.50;;;;;;;-143.84;84.38;45035.75;5109820;28;20511;-72
2022/08/07 00:46:02;;;;;;;25.03;15.83;;;;;;;-143.84;85.25;45033.84;5109306;28;20507;-72
2022/08/07 00:48:29;;;;;;;21.57;16.07;;;;;;;-143.84;85.51;45043.34;5108968;28;20496;-72
2022/08/07 00:50:57;;;;;;;17.20;15.60;;;;;;;-143.84;85.20;45058.59;5109717;28;20483;-72
2022/08/07 00:53:25;;;;;;;19.03;14.53;;;;;;;-143.84;85.77;45024.31;5109586;28;20877;-72
2022/08/07 00:55:52;;;;;;;17.13;15.43;;;;;;;-143.84;85.83;45028.13;5109249;28;20447;-72
2022/08/07 00:58:21;;;;;;;17.93;16.00;;;;;;;-143.84;86.01;45056.69;5109883;28;20488;-72
2022/08/07 01:00:50;;;;;;;21.73;15.40;;;;;;;-143.84;86.47;45031.94;5109876;28;20822;-72
2022/08/07 01:03:19;;;;;;;18.07;16.17;;;;;;;-143.84;86.27;45047.16;5109767;28;20433;-72
2022/08/07 01:05:47;;;;;;;20.80;15.43;;;;;;;-143.84;86.01;45010.97;5109769;28;20454;-72
2022/08/07 01:08:15;;;;;;;17.30;15.50;;;;;;;-143.84;86.04;45062.41;5109959;28;20522;-72
2022/08/07 01:10:43;;;;;;;18.43;15.37;;;;;;;-143.84;85.84;45026.22;5109722;28;20443;-72
2022/08/07 01:13:11;;;;;;;18.90;16.93;;;;;;;-143.84;85.68;45026.22;5109644;28;20507;-72
2022/08/07 01:15:38;;;;;;;19.53;14.20;;;;;;;-143.84;85.77;45050.97;5109918;28;20446;-72
2022/08/07 01:18:06;;;;;;;19.43;16.00;;;;;;;-143.84;85.82;45030.03;5109874;28;20508;-72
2022/08/07 01:20:45;;;;;;;18.07;16.20;;;;;;;-143.84;85.94;45031.94;5109753;28;20467;-72
2022/08/07 01:23:15;;;;;;;19.47;16.33;;;;;;;-143.84;86.11;45033.84;5109456;28;20515;-72
2022/08/07 01:25:43;;;;;;;17.93;16.03;;;;;;;-143.84;86.17;45056.69;5109208;28;20539;-72
2022/08/07 01:28:11;;;;;;;17.73;15.87;;;;;;;-143.84;86.51;45039.53;5109394;28;20516;-72
2022/08/07 01:30:40;;;;;;;16.40;14.70;;;;;;;-143.84;86.62;45028.13;5109647;28;20598;-72
2022/08/07 01:33:07;;;;;;;22.60;15.70;;;;;;;-143.84;87.07;45026.22;5109827;28;21237;-72
2022/08/07 01:35:35;;;;;;;16.83;15.23;;;;;;;-143.84;86.80;45031.94;5109439;28;20439;-72
2022/08/07 01:38:02;;;;;;;16.57;14.90;;;;;;;-143.84;88.02;45039.53;5109243;28;20439;-72
2022/08/07 01:40:33;;;;;;;20.40;16.33;;;;;;;-143.84;88.55;45043.34;5109046;28;20446;-72
2022/08/07 01:43:00;;;;;;;17.83;15.83;;;;;;;-143.84;88.81;45041.44;5109430;28;20792;-72
2022/08/07 01:45:27;;;;;;;17.87;14.33;;;;;;;-143.84;89.26;45016.69;5109099;28;20439;-72
2022/08/07 01:47:54;;;;;;;16.77;15.00;;;;;;;-143.84;89.40;45035.75;5108798;28;20443;-72
2022/08/07 01:50:22;;;;;;;18.73;16.73;;;;;;;-143.84;89.34;45009.09;5109041;28;20474;-72
2022/08/07 01:52:52;;;;;;;21.77;15.20;;;;;;;-143.84;89.18;45050.97;5108976;28;20479;-72
2022/08/07 01:55:24;;;;;;;19.03;15.70;;;;;;;-143.84;89.14;45022.41;5109062;28;20525;-72
2022/08/07 01:57:55;;;;;;;17.83;15.77;;;;;;;-143.84;88.69;45049.06;5109216;28;20450;-72
2022/08/07 02:00:26;;;;;;;17.63;15.90;;;;;;;-143.84;88.08;45052.88;5109165;28;20443;-72
2022/08/07 02:02:58;;;;;;;15.90;14.20;;;;;;;-143.84;88.04;45009.09;5109153;28;20844;-72
2022/08/07 02:05:31;;;;;;;17.13;15.20;;;;;;;-143.84;87.66;45043.34;5109125;28;20488;-72
2022/08/07 02:08:01;;;;;;;17.70;15.90;;;;;;;-143.84;88.03;45068.13;5108802;28;20438;-72
2022/08/07 02:10:30;;;;;;;17.10;15.37;;;;;;;-143.84;88.33;45047.16;5108928;28;20998;-72
2022/08/07 02:13:02;;;;;;;20.33;16.60;;;;;;;-143.84;88.48;45039.53;5108827;28;20489;-72
2022/08/07 02:15:31;;;;;;;20.50;16.53;;;;;;;-143.84;88.35;45062.41;5109007;28;20431;-72
2022/08/07 02:18:00;;;;;;;20.67;16.80;;;;;;;-143.84;87.99;45039.53;5108992;28;20442;-72
2022/08/07 02:20:30;;;;;;;24.63;18.27;;;;;;;-143.84;87.83;45030.03;5108742;28;20443;-72
2022/08/07 02:23:00;;;;;;;20.37;18.23;;;;;;;-143.84;87.14;45031.94;5108793;28;20439;-72
2022/08/07 02:25:30;;;;;;;24.17;16.67;;;;;;;-143.84;86.68;45045.25;5109003;28;20431;-72
2022/08/07 02:28:01;;;;;;;21.53;18.23;;;;;;;-143.84;86.66;45049.06;5108760;28;20447;-72
2022/08/07 02:30:29;;;;;;;22.57;19.50;;;;;;;-143.84;87.13;45054.78;5108839;28;20439;-72
2022/08/07 02:32:59;;;;;;;24.37;19.50;;;;;;;-143.84;87.79;45045.25;5108642;28;20972;-72
2022/08/07 02:35:28;;;;;;;21.50;17.87;;;;;;;-143.84;88.44;45022.41;5108920;28;20563;-72
2022/08/07 02:37:58;;;;;;;25.27;19.47;;;;;;;-143.84;89.07;45024.31;5108941;28;20438;-72
2022/08/07 02:40:26;;;;;;;22.30;18.37;;;;;;;-143.84;90.29;45052.88;5108677;28;20944;-72
2022/08/07 02:42:55;;;;;;;27.23;18.73;;;;;;;-143.84;90.92;45043.34;5108873;28;20850;-72
2022/08/07 02:45:28;;;;;;;20.87;18.57;;;;;;;-143.84;91.27;45041.44;5108695;28;20527;-72
2022/08/07 02:47:55;;;;;;;20.40;17.20;;;;;;;-143.84;91.94;45064.31;5108551;28;20629;-72
2022/08/07 02:50:23;;;;;;;21.47;17.00;;;;;;;-143.84;91.54;45041.44;5108399;28;20474;-72
2022/08/07 02:52:54;;;;;;;18.30;16.53;;;;;;;-143.84;91.00;45058.59;5108329;28;21003;-72
2022/08/07 02:55:24;;;;;;;17.07;15.27;;;;;;;-143.84;91.15;45047.16;5108936;28;21296;-72
2022/08/07 02:57:53;;;;;;;19.67;15.13;;;;;;;-143.84;90.67;45060.50;5108475;28;21021;-72
2022/08/07 03:00:23;;;;;;;16.70;14.77;;;;;;;-143.84;90.69;45052.88;5110819;28;20515;-79
2022/08/07 03:02:52;;;;;;;22.83;15.93;;;;;;;-143.84;91.06;45035.75;5113266;28;20484;-79
2022/08/07 03:05:20;;;;;;;17.10;14.00;;;;;;;-143.84;91.30;45050.97;5113341;28;20538;-79
2022/08/07 03:07:48;;;;;;;17.83;14.83;;;;;;;-143.84;91.14;45047.16;5113579;28;20439;-79
2022/08/07 03:10:16;;;;;;;23.67;15.60;;;;;;;-143.84;90.58;45047.16;5113699;28;20431;-79
2022/08/07 03:12:45;;;;;;;16.47;14.87;;;;;;;-143.84;90.35;45058.59;5113766;28;20526;-79
2022/08/07 03:15:13;;;;;;;16.43;14.10;;;;;;;-143.84;90.00;45062.41;5113623;28;20439;-79
2022/08/07 03:17:42;;;;;;;16.73;15.07;;;;;;;-143.84;89.68;45058.59;5113333;28;21261;-79
2022/08/07 03:20:12;;;;;;;17.20;15.10;;;;;;;-143.84;89.13;45049.06;5113169;28;20438;-79
2022/08/07 03:22:41;;;;;;;21.20;14.87;;;;;;;-143.84;88.36;45026.22;5113382;28;21210;-79
2022/08/07 03:25:09;;;;;;;16.43;14.73;;;;;;;-143.84;88.44;45056.69;5113494;28;20435;-79
2022/08/07 03:27:37;;;;;;;18.60;14.37;;;;;;;-143.84;88.20;45033.84;5113776;28;20972;-79
2022/08/07 03:30:05;;;;;;;17.40;14.57;;;;;;;-143.84;87.91;45070.00;5113372;28;20447;-79
2022/08/07 03:32:36;;;;;;;20.00;13.60;;;;;;;-143.84;87.49;45066.22;5113367;28;20492;-79
2022/08/07 03:35:07;;;;;;;15.20;13.60;;;;;;;-143.84;87.25;45033.84;5113362;28;20474;-79
2022/08/07 03:37:37;;;;;;;15.27;13.70;;;;;;;-143.84;86.47;45047.16;5113204;28;20454;-78
2022/08/07 03:40:07;;;;;;;13.83;12.33;;;;;;;-143.84;85.22;45070.00;5113117;28;20847;-79
2022/08/07 03:42:35;;;;;;;17.77;12.47;;;;;;;-143.84;84.80;45026.22;5113200;28;20800;-79
2022/08/07 03:45:04;;;;;;;15.87;11.47;;;;;;;-143.84;83.62;45049.06;5113045;28;20443;-79
2022/08/07 03:47:32;;;;;;;13.77;11.80;;;;;;;-143.84;82.68;45049.06;5111496;28;20970;-72
2022/08/07 03:49:59;;;;;;;12.30;10.67;;;;;;;-143.84;80.58;45068.13;5111122;28;20471;-72
2022/08/07 03:52:28;;;;;;;14.13;10.13;;;;;;;-143.84;78.43;45035.75;5111256;28;20496;-72
2022/08/07 03:54:59;;;;;;;12.50;10.80;;;;;;;-143.84;75.31;45047.16;5111092;28;20482;-72
2022/08/07 03:57:29;;;;;;;12.90;10.30;;;;;;;-143.84;73.33;45039.53;5111186;28;20447;-72
2022/08/07 03:59:56;;;;;;;12.67;9.73;;;;;;;-143.84;69.92;44999.56;5111065;28;20431;-72
2022/08/07 04:02:24;;;;;;;10.70;9.80;;;;;;;-143.84;67.77;45033.84;5111467;28;20912;-72
2022/08/07 04:04:52;;;;;;;11.50;10.33;;;;;;;-143.84;66.01;44972.91;5111177;28;20435;-72
2022/08/07 04:07:20;;;;;;;9.90;8.60;;;;;;;-143.84;63.61;44988.13;5111019;28;20443;-71
2022/08/07 04:09:47;;;;;;;10.70;9.10;;;;;;;-143.84;61.21;45009.09;5111048;28;21159;-72
2022/08/07 04:12:17;;;;;;;10.90;9.37;;;;;;;-143.84;60.00;44986.22;5110559;28;20505;-72
2022/08/07 04:14:45;;;;;;;9.60;8.70;;;;;;;-143.84;58.25;45003.38;5110545;28;20495;-72
2022/08/07 04:17:12;;;;;;;8.80;7.90;;;;;;;-143.84;58.05;44980.53;5110962;28;20530;-72
2022/08/07 04:19:41;;;;;;;11.40;8.50;;;;;;;-143.84;57.79;44999.56;5110708;28;20496;-72
2022/08/07 04:22:08;;;;;;;9.67;8.77;;;;;;;-143.84;57.23;44984.31;5110992;28;20442;-72
2022/08/07 04:24:36;;;;;;;13.00;7.87;;;;;;;-143.84;57.54;44961.47;5092934;28;20446;-72
2022/08/07 04:27:04;;;;;;;8.90;8.10;;;;;;;-143.84;56.55;44986.22;5110427;28;20439;-71
2022/08/07 04:29:33;;;;;;;9.30;8.50;;;;;;;-143.84;56.15;44955.75;5110692;28;20453;-72
2022/08/07 04:32:01;;;;;;;8.17;7.40;;;;;;;-143.84;54.97;44953.88;5110830;28;20446;-73
2022/08/07 04:34:30;;;;;;;9.47;7.90;;;;;;;-143.84;54.12;44965.28;5110272;28;20865;-72
2022/08/07 04:36:57;;;;;;;10.97;7.87;;;;;;;-143.84;52.78;44965.28;5110618;28;20816;-72
2022/08/07 04:39:25;;;;;;;7.80;7.17;;;;;;;-143.84;53.72;44976.72;5110377;28;20439;-73
2022/08/07 04:41:52;;;;;;;9.47;7.93;;;;;;;-143.84;52.98;44961.47;5110166;28;21144;-73
2022/08/07 04:44:19;;;;;;;6.83;6.27;;;;;;;-143.84;52.18;44942.44;5108698;27;20508;-73
2022/08/07 04:47:00;;;;;;;7.23;6.53;;;;;;;-143.84;50.84;44974.81;5110282;28;20451;-73
2022/08/07 04:49:37;;;;;;;13.10;7.00;;;;;;;-143.84;50.31;44948.16;5110367;28;20510;-73
2022/08/07 04:52:12;;;;;;;7.83;6.40;;;;;;;-143.84;49.08;44946.25;5110258;28;20447;-73
2022/08/07 04:54:47;;;;;;;8.80;7.10;;;;;;;-143.84;49.20;44950.06;5110035;28;20481;-73
2022/08/07 04:57:26;;;;;;;9.43;7.33;;;;;;;-143.84;49.00;44927.19;5109990;28;20434;-73
2022/08/07 04:59:58;;;;;;;6.83;6.23;;;;;;;-143.84;48.15;44948.16;5109950;28;20445;-73
2022/08/07 05:02:32;;;;;;;7.93;7.13;;;;;;;-143.84;47.86;44955.75;5109764;28;20512;-73
2022/08/07 05:05:05;;;;;;;7.50;6.57;;;;;;;-143.84;47.43;44911.97;5109874;28;20516;-73
2022/08/07 05:07:38;;;;;;;7.43;6.87;;;;;;;-143.84;47.54;44931.00;5109537;28;20439;-73
2022/08/07 05:10:11;;;;;;;7.90;6.47;;;;;;;-143.84;46.86;44911.97;5109691;28;20495;-73
2022/08/07 05:12:44;;;;;;;7.37;6.47;;;;;;;-143.84;47.19;44950.06;5108804;28;20945;-73
2022/08/07 05:15:16;;;;;;;8.93;6.63;;;;;;;-143.84;47.06;44940.53;5108738;28;20486;-73
2022/08/07 05:17:49;;;;;;;7.23;6.60;;;;;;;-143.84;46.76;44959.56;5109251;28;20869;-73
2022/08/07 05:20:20;;;;;;;6.77;6.27;;;;;;;-143.84;47.00;44917.69;5109219;28;20443;-73
2022/08/07 05:22:51;;;;;;;9.23;6.23;;;;;;;-143.84;46.78;44900.53;5108480;28;20443;-73
2022/08/07 05:25:22;;;;;;;9.03;6.80;;;;;;;-143.84;46.69;44942.44;5109534;28;20439;-73
2022/08/07 05:27:50;;;;;;;8.10;6.70;;;;;;;-143.84;46.74;44931.00;5109418;28;20463;-73
2022/08/07 05:30:17;;;;;;;8.63;6.60;;;;;;;-143.84;47.15;44953.88;5109297;28;21029;-73
2022/08/07 05:32:48;;;;;;;9.53;7.90;;;;;;;-143.84;47.77;44923.41;5109357;28;20518;-73
2022/08/07 05:35:17;;;;;;;12.20;7.10;;;;;;;-143.84;48.33;44917.69;5109239;28;20527;-73
2022/08/07 05:37:46;;;;;;;12.53;8.17;;;;;;;-143.84;48.36;44921.50;5109535;28;20799;-73
2022/08/07 05:40:13;;;;;;;10.17;7.27;;;;;;;-143.84;48.96;44931.00;5109604;28;20550;-73
2022/08/07 05:42:40;;;;;;;11.30;6.40;;;;;;;-143.84;48.71;44938.63;5109080;28;20495;-73
2022/08/07 05:45:08;;;;;;;7.60;7.00;;;;;;;-143.84;48.59;44931.00;5109079;28;20869;-73
2022/08/07 05:47:37;;;;;;;10.50;8.30;;;;;;;-143.84;47.97;44923.41;5108607;28;20443;-72
2022/08/07 05:50:09;;;;;;;8.17;7.47;;;;;;;-143.84;48.88;44911.97;5088654;28;20552;-72
2022/08/07 05:52:37;;;;;;;8.30;7.23;;;;;;;-143.84;48.31;44929.09;5088869;28;20444;-72
2022/08/07 05:55:05;;;;;;;11.70;7.20;;;;;;;-143.84;47.94;44896.75;5088898;28;20483;-72
2022/08/07 05:57:33;;;;;;;8.93;7.40;;;;;;;-143.84;47.45;44910.06;5088665;28;20436;-72
2022/08/07 06:00:01;;;;;;;8.27;7.47;;;;;;;-143.84;47.76;44881.50;5088656;28;20443;-72
2022/08/07 06:02:31;;;;;;;7.80;6.90;;;;;;;-143.84;47.23;44904.34;5088894;28;20440;-72
2022/08/07 06:05:03;;;;;;;8.17;7.37;;;;;;;-143.84;46.83;44877.69;5088650;28;20937;-72
2022/08/07 06:07:33;;;;;;;7.27;6.67;;;;;;;-143.84;46.61;44898.66;5088938;28;20444;-73
2022/08/07 06:10:02;;;;;;;12.60;7.93;;;;;;;-143.84;45.81;44892.94;5088803;28;20432;-72
2022/08/07 06:12:30;;;;;;;8.53;7.73;;;;;;;-143.84;45.78;44875.78;5088786;28;20440;-72
2022/08/07 06:14:59;;;;;;;8.77;7.43;;;;;;;-143.84;45.45;44904.34;5088584;28;20479;-73
2022/08/07 06:17:27;;;;;;;8.83;7.60;;;;;;;-143.84;45.38;44887.22;5089028;28;20443;-72
2022/08/07 06:19:56;;;;;;;8.17;7.47;;;;;;;-143.84;45.24;44870.09;5088544;28;20952;-72
2022/08/07 06:22:25;;;;;;;9.00;8.20;;;;;;;-143.84;44.43;44866.28;5088598;28;20444;-72
2022/08/07 06:24:53;;;;;;;9.10;7.43;;;;;;;-143.84;44.64;44889.13;5088681;28;20948;-72
2022/08/07 06:27:22;;;;;;;14.93;8.70;;;;;;;-143.84;44.95;44860.56;5088345;28;20440;-72
2022/08/07 06:29:49;;;;;;;12.57;7.97;;;;;;;-143.84;45.48;44898.66;5088804;28;20440;-72
2022/08/07 06:32:16;;;;;;;10.30;7.33;;;;;;;-143.84;45.55;44875.78;5088741;28;20932;-72
2022/08/07 06:34:44;;;;;;;16.00;8.00;;;;;;;-143.84;44.68;44870.09;5090648;28;20471;-72
2022/08/07 06:37:11;;;;;;;7.57;6.70;;;;;;;-143.84;44.67;44856.75;5092304;28;20936;-71
2022/08/07 06:39:40;;;;;;;13.60;6.70;;;;;;;-143.84;44.51;44868.19;5092325;28;20436;-72
2022/08/07 06:42:14;;;;;;;7.70;7.00;;;;;;;-143.84;43.90;44847.22;5092791;28;21002;-72
2022/08/07 06:44:44;;;;;;;7.40;6.70;;;;;;;-143.84;43.72;44841.53;5091740;28;20447;-72
2022/08/07 06:47:11;;;;;;;10.73;7.40;;;;;;;-143.84;43.63;44873.88;5105604;28;20438;-72
2022/08/07 06:49:39;;;;;;;13.00;6.77;;;;;;;-143.84;43.52;44879.59;5112335;28;20540;-72
2022/08/07 06:52:08;;;;;;;8.40;6.67;;;;;;;-143.84;43.22;44866.28;5112457;28;21021;-72
2022/08/07 06:54:37;;;;;;;8.07;7.03;;;;;;;-143.84;43.72;44868.19;5112429;28;20539;-72
2022/08/07 06:57:05;;;;;;;9.03;6.40;;;;;;;-143.84;43.52;44826.28;5112341;28;21008;-72
2022/08/07 06:59:38;;;;;;;10.00;7.30;;;;;;;-143.84;43.22;44843.44;5112484;28;20435;-72
2022/08/07 07:02:09;;;;;;;10.03;7.10;;;;;;;-143.84;43.76;44854.84;5112355;28;20438;-72
2022/08/07 07:04:37;;;;;;;10.37;8.10;;;;;;;-143.84;44.03;44843.44;5112312;28;20459;-73
2022/08/07 07:07:06;;;;;;;8.17;6.77;;;;;;;-143.84;44.38;44870.09;5112209;28;20476;-72
2022/08/07 07:09:34;;;;;;;12.97;7.33;;;;;;;-143.84;42.77;44839.63;5112154;28;20509;-72
2022/08/07 07:12:14;;;;;;;9.83;6.60;;;;;;;-143.84;43.11;44847.22;5111945;28;20874;-72
2022/08/07 07:14:51;;;;;;;10.13;6.03;;;;;;;-143.84;42.20;44833.91;5112028;28;20486;-72
2022/08/07 07:17:23;;;;;;;9.93;6.30;;;;;;;-143.84;41.86;44801.53;5112119;28;20518;-71
2022/08/07 07:19:56;;;;;;;8.37;5.90;;;;;;;-143.84;42.08;44820.56;5111895;28;20511;-72
2022/08/07 07:22:25;;;;;;;9.73;6.20;;;;;;;-143.84;42.51;44807.25;5112033;28;20530;-72
2022/08/07 07:24:52;;;;;;;14.83;6.37;;;;;;;-143.84;42.65;44803.44;5111891;28;20977;-72
2022/08/07 07:27:24;;;;;;;11.03;6.90;;;;;;;-143.84;42.27;44828.19;5112033;28;20947;-72
2022/08/07 07:29:58;;;;;;;17.93;6.73;;;;;;;-143.84;41.85;44799.63;5112065;28;20530;-72
2022/08/07 07:32:26;;;;;;;9.60;6.43;;;;;;;-143.84;42.00;44809.16;5111880;28;20510;-73
2022/08/07 07:34:59;;;;;;;11.03;6.20;;;;;;;-143.84;41.94;44826.28;5111808;28;20548;-72
2022/08/07 07:37:28;;;;;;;10.57;5.77;;;;;;;-143.84;40.59;44774.88;5111996;28;20437;-72
2022/08/07 07:40:00;;;;;;;7.13;5.90;;;;;;;-143.84;41.06;44784.41;5111898;28;20516;-72
2022/08/07 07:42:27;;;;;;;9.70;5.90;;;;;;;-143.84;39.63;44786.31;5111433;28;20439;-72
2022/08/07 07:45:00;;;;;;;11.40;6.37;;;;;;;-143.84;39.95;44793.91;5111335;28;20555;-72
2022/08/07 07:47:28;;;;;;;7.43;6.83;;;;;;;-143.84;40.29;44812.97;5110981;28;20451;-73
2022/08/07 07:49:58;;;;;;;14.10;6.60;;;;;;;-143.84;40.12;44774.88;5111007;28;20499;-72
2022/08/07 07:52:26;;;;;;;10.67;6.37;;;;;;;-143.84;40.56;44822.47;5111389;28;20917;-72
2022/08/07 07:54:55;;;;;;;21.10;6.57;;;;;;;-143.84;41.25;44835.81;5111278;28;20479;-72
2022/08/07 07:57:24;;;;;;;14.10;6.13;;;;;;;-143.84;40.34;44832.00;5111206;28;20538;-72
2022/08/07 07:59:53;;;;;;;10.43;6.63;;;;;;;-143.84;40.56;44832.00;5111314;28;20503;-72
2022/08/07 08:02:25;;;;;;;8.63;6.30;;;;;;;-143.84;39.29;44786.31;5111368;28;20873;-73
2022/08/07 08:04:54;;;;;;;13.77;6.93;;;;;;;-143.84;40.20;44780.59;5111033;28;20447;-72
2022/08/07 08:07:23;;;;;;;9.63;6.17;;;;;;;-143.84;38.83;44822.47;5111123;28;20450;-72
2022/08/07 08:09:52;;;;;;;12.67;6.37;;;;;;;-143.84;38.53;44841.53;5110674;28;20491;-72
2022/08/07 08:12:20;;;;;;;9.37;7.03;;;;;;;-143.84;39.23;44797.72;5111055;28;20431;-72
2022/08/07 08:14:47;;;;;;;11.70;6.90;;;;;;;-143.84;40.04;44792.00;5110852;28;21080;-72
2022/08/07 08:17:16;;;;;;;10.60;6.13;;;;;;;-143.84;38.75;44818.66;5110924;28;21320;-72
2022/08/07 08:19:45;;;;;;;7.00;6.30;;;;;;;-143.84;38.67;44772.97;5110646;28;20443;-72
2022/08/07 08:27:49;;;;;;;12.63;6.93;;;;;;;-143.84;38.72;44767.25;5110629;28;20479;-72
2022/08/07 08:30:17;;;;;;;10.00;5.80;;;;;;;-143.84;37.92;44790.13;5110492;28;20439;-73
2022/08/07 08:32:48;;;;;;;11.97;6.07;;;;;;;-143.84;38.01;44805.34;5110518;28;20896;-72
2022/08/07 08:35:20;;;;;;;14.07;5.93;;;;;;;-143.84;37.50;44803.44;5110524;28;20482;-69
2022/08/07 08:37:48;;;;;;;11.17;5.43;;;;;;;-143.84;38.09;44801.53;5110692;28;20443;-69
2022/08/07 08:40:23;;;;;;;14.40;5.73;;;;;;;-143.84;38.01;44782.50;5110393;28;20431;-69
2022/08/07 08:42:56;;;;;;;9.53;5.30;;;;;;;-143.84;39.43;44801.53;5110517;28;20845;-73
2022/08/07 08:45:35;;;;;;;20.80;6.07;;;;;;;-143.84;38.52;44772.97;5110375;28;20979;-73
2022/08/07 08:48:10;;;;;;;11.63;5.40;;;;;;;-143.84;38.32;44778.69;5110209;28;20443;-73
2022/08/07 08:50:47;;;;;;;6.83;5.10;;;;;;;-143.84;38.16;44795.81;5110087;28;21443;-73
2022/08/07 08:53:25;;;;;;;14.00;5.43;;;;;;;-143.84;38.88;44795.81;5110174;28;20958;-73
2022/08/07 08:55:55;;;;;;;8.27;5.47;;;;;;;-143.84;38.98;44805.34;5110182;28;20883;-73
2022/08/07 08:58:31;;;;;;;6.80;5.53;;;;;;;-143.84;38.50;44792.00;5108743;28;20496;-73
2022/08/07 09:01:03;;;;;;;10.53;5.40;;;;;;;-143.84;38.52;44809.16;5109976;28;20447;-73
2022/08/07 09:03:39;;;;;;;11.07;5.67;;;;;;;-143.84;39.35;44805.34;5109946;28;20510;-73
2022/08/07 09:06:11;;;;;;;8.80;5.93;;;;;;;-143.84;39.41;44767.25;5109802;28;20445;-73
2022/08/07 09:08:48;;;;;;;15.80;5.40;;;;;;;-143.84;39.72;44790.13;5109514;28;20496;-73
2022/08/07 09:11:18;;;;;;;9.37;5.23;;;;;;;-143.84;39.08;44801.53;5109908;28;20507;-73
2022/08/07 09:13:59;;;;;;;7.37;5.70;;;;;;;-143.84;38.90;44801.53;5109618;28;20522;-73
2022/08/07 09:16:35;;;;;;;18.33;5.13;;;;;;;-143.84;39.43;44801.53;5109530;28;20535;-73
2022/08/07 09:19:17;;;;;;;19.43;5.83;;;;;;;-143.84;38.87;44790.13;5109758;28;20449;-73
2022/08/07 09:21:53;;;;;;;7.60;5.40;;;;;;;-143.84;39.18;44805.34;5109534;28;20435;-73
2022/08/07 09:24:33;;;;;;;8.10;6.00;;;;;;;-143.84;39.24;44797.72;5109303;28;20435;-73
2022/08/07 09:27:10;;;;;;;17.13;7.73;;;;;;;-143.84;39.23;44801.53;5109490;28;20431;-73
2022/08/07 09:29:55;;;;;;;7.97;6.30;;;;;;;-143.84;39.18;44799.63;5109408;28;20443;-73
2022/08/07 09:32:32;;;;;;;13.90;5.37;;;;;;;-143.84;39.40;44805.34;5103812;28;20451;-73
2022/08/07 09:35:08;;;;;;;14.80;10.53;;;;;;;-143.84;40.40;44780.59;5088943;28;20997;-73
2022/08/07 09:37:43;;;;;;;8.90;5.67;;;;;;;-143.84;38.67;44782.50;5088747;28;20474;-73
2022/08/07 09:56:23;;;;;;;14.63;5.53;;;;;;;-143.84;40.65;44833.91;4446037;27;18797788;-72
2022/08/07 09:59:21;;;;;;;11.30;6.10;;;;;;;-143.84;40.60;44835.81;5112771;28;20197;-72
2022/08/07 10:02:02;;;;;;;8.60;5.43;;;;;;;-143.84;39.29;44803.44;5127519;28;20442;-72
2022/08/07 10:04:48;;;;;;;9.00;4.47;;;;;;;-143.84;39.23;44820.56;5109118;28;20470;-73
2022/08/07 10:07:33;;;;;;;6.17;4.57;;;;;;;-143.84;38.50;44820.56;5106350;28;20480;-73
2022/08/07 10:10:23;;;;;;;8.57;4.97;;;;;;;-143.84;38.48;44820.56;5106381;28;20445;-73
2022/08/07 10:13:14;;;;;;;10.53;4.80;;;;;;;-143.84;37.75;44790.13;5106242;28;20435;-73
2022/08/07 10:15:54;;;;;;;9.43;4.43;;;;;;;-143.84;37.87;44801.53;5108023;28;20503;-77
2022/08/07 10:18:44;;;;;;;8.20;4.10;;;;;;;-143.84;36.93;44805.34;5108873;28;20416;-78
2022/08/07 10:21:25;;;;;;;4.50;3.60;;;;;;;-143.84;36.03;44795.81;5077724;28;20440;-78
2022/08/07 10:24:23;;;;;;;5.43;4.00;;;;;;;-143.84;35.89;44784.41;5108606;28;20443;-78
2022/08/07 10:27:06;;;;;;;4.90;3.70;;;;;;;-143.84;36.20;44782.50;5108702;28;20439;-78
2022/08/07 10:30:03;;;;;;;19.10;4.13;;;;;;;-143.84;36.30;44805.34;5108369;28;20517;-78
2022/08/07 10:32:51;;;;;;;4.03;3.70;;;;;;;-143.84;35.28;44772.97;5108762;28;20438;-78
2022/08/07 10:35:26;;;;;;;8.80;4.50;;;;;;;-143.84;35.34;44790.13;5108752;28;20463;-78
2022/08/07 10:38:12;;;;;;;3.50;3.20;;;;;;;-143.84;34.96;44799.63;5108593;28;20438;-78
2022/08/07 10:40:50;;;;;;;7.50;3.60;;;;;;;-143.84;35.53;44782.50;5109019;28;20522;-78
2022/08/07 10:43:23;;;;;;;6.80;3.83;;;;;;;-143.84;34.13;44795.81;5108861;28;20419;-78
2022/08/07 10:45:58;;;;;;;4.97;3.37;;;;;;;-143.84;34.40;44809.16;5108212;28;20439;-78
2022/08/07 10:48:47;;;;;;;12.23;4.13;;;;;;;-143.84;34.22;44776.78;5107771;28;20447;-78
2022/08/07 10:51:21;;;;;;;9.90;3.13;;;;;;;-143.84;34.85;44765.34;5108210;28;21001;-75
2022/08/07 10:54:00;;;;;;;3.87;3.40;;;;;;;-143.84;34.99;44795.81;5109343;28;20455;-78
2022/08/07 10:56:40;;;;;;;8.23;3.90;;;;;;;-143.84;35.11;44788.22;5108053;28;20435;-78
2022/08/07 10:59:20;;;;;;;4.67;3.20;;;;;;;-143.84;35.36;44780.59;5109652;28;20518;-78
2022/08/07 11:01:57;;;;;;;6.43;3.83;;;;;;;-143.84;35.37;44801.53;5108864;28;20482;-78
2022/08/07 11:04:40;;;;;;;4.50;3.50;;;;;;;-143.84;34.70;44780.59;5108146;28;20833;-79
2022/08/07 11:07:19;;;;;;;5.33;3.63;;;;;;;-143.84;35.03;44784.41;5095262;28;20447;-78
2022/08/07 11:09:53;;;;;;;7.90;3.70;;;;;;;-143.84;34.65;44793.91;5096645;28;20451;-77
2022/08/07 11:12:29;;;;;;;7.33;3.10;;;;;;;-143.84;34.96;44772.97;5094279;28;20834;-78
2022/08/07 11:15:02;;;;;;;7.83;3.40;;;;;;;-143.84;35.71;44774.88;5094533;28;20471;-78
2022/08/07 11:17:46;;;;;;;13.70;3.83;;;;;;;-143.84;34.71;44795.81;5095761;28;20443;-78
2022/08/07 11:20:19;;;;;;;5.43;3.40;;;;;;;-143.84;34.07;44795.81;5094263;28;20497;-78
2022/08/07 11:22:56;;;;;;;3.80;3.20;;;;;;;-143.84;34.25;44805.34;5093732;28;20416;-78
2022/08/07 11:25:31;;;;;;;8.70;3.77;;;;;;;-143.84;34.83;44826.28;5093931;28;20439;-79
2022/08/07 11:28:04;;;;;;;3.23;2.93;;;;;;;-143.84;34.98;44826.28;5094136;28;20436;-79
2022/08/07 11:30:42;;;;;;;5.27;3.73;;;;;;;-143.84;34.96;44809.16;5093468;28;20436;-78
2022/08/07 11:33:20;;;;;;;5.97;2.97;;;;;;;-143.84;34.48;44818.66;5093658;28;20463;-78
2022/08/07 11:35:59;;;;;;;4.30;3.20;;;;;;;-143.84;35.70;44811.06;5093882;28;20467;-78
2022/08/07 11:38:33;;;;;;;6.40;3.43;;;;;;;-143.84;36.19;44761.56;5090855;28;20509;-78
2022/08/07 11:41:05;;;;;;;4.83;3.50;;;;;;;-143.84;34.54;44799.63;5091716;28;20424;-78
2022/08/07 11:43:40;;;;;;;4.60;3.47;;;;;;;-143.84;33.76;44772.97;5092974;28;20436;-78
2022/08/07 11:46:17;;;;;;;4.20;3.07;;;;;;;-143.84;33.60;44792.00;5094865;28;20874;-79
2022/08/07 11:49:08;;;;;;;7.57;3.40;;;;;;;-143.84;33.27;44837.72;5113032;28;20434;-78
2022/08/07 11:51:53;;;;;;;9.80;3.10;;;;;;;-143.84;33.76;44784.41;5110852;28;20447;-77